createdAt,value
2022-12-03T00:28:16.467Z,92.8
2022-12-03T00:56:58.154Z,92.81
2022-12-03T01:25:40.129Z,92.14
2022-12-03T01:54:21.339Z,91.61
2022-12-03T02:23:02.927Z,91.33
2022-12-03T02:51:42.272Z,91.9
2022-12-03T03:20:23.339Z,92.52
2022-12-03T03:49:00.760Z,91.6
2022-12-03T04:17:31.064Z,92.07
2022-12-03T04:46:13.105Z,91.88
2022-12-03T05:14:55.157Z,93.5
2022-12-03T05:43:14.723Z,93.76
2022-12-03T06:11:49.524Z,93.7
2022-12-03T06:40:26.782Z,91.78
2022-12-03T07:09:05.170Z,90.82
2022-12-03T07:37:44.705Z,91.99
2022-12-03T08:06:16.937Z,92.62
2022-12-03T08:34:49.060Z,91.39
2022-12-03T09:03:20.752Z,90.54
2022-12-03T09:31:57.217Z,89.54
2022-12-03T10:00:14.833Z,89.67
2022-12-03T10:28:26.928Z,88.78
2022-12-03T10:56:57.239Z,87.05
2022-12-03T11:25:24.107Z,88.09
2022-12-03T11:53:51.137Z,86.48
2022-12-03T12:22:18.374Z,86.77
2022-12-03T12:50:42.322Z,87.42
2022-12-03T13:19:03.503Z,87.26
2022-12-03T13:47:27.376Z,86.76
2022-12-03T14:15:50.486Z,88.93
2022-12-03T14:44:11.553Z,89.24
2022-12-03T15:12:33.482Z,88.83
2022-12-03T15:41:07.629Z,88.86
2022-12-03T16:09:34.921Z,89.05
2022-12-03T16:38:02.874Z,89.65
2022-12-03T17:06:41.497Z,89.89
2022-12-03T17:35:03.334Z,89.98
2022-12-03T18:03:27.427Z,90.09
2022-12-03T18:31:50.398Z,90.21
2022-12-03T19:00:23.456Z,89.99
2022-12-03T19:28:50.651Z,89.76
2022-12-03T19:57:24.253Z,89.62
2022-12-03T20:25:45.298Z,89.37
2022-12-03T20:54:26.679Z,90.16
2022-12-03T21:23:02.098Z,91.59
2022-12-03T21:51:23.313Z,92.93
2022-12-03T22:20:00.765Z,92.61
2022-12-03T22:48:31.149Z,95.01
2022-12-03T23:16:55.218Z,95.19
2022-12-03T23:45:26.820Z,94.48
